createdAt,value
2023-08-21T00:03:40.979Z,97872.44
2023-08-21T00:08:45.226Z,97882.56
2023-08-21T00:13:50.576Z,97879.06
2023-08-21T00:18:53.391Z,97871.75
2023-08-21T00:23:57.682Z,97866.19
2023-08-21T00:29:00.810Z,97868.22
2023-08-21T00:34:03.662Z,97870.22
2023-08-21T00:39:07.996Z,97862.16
2023-08-21T00:44:10.930Z,97865.44
2023-08-21T00:49:14.003Z,97863.91
2023-08-21T00:54:19.027Z,97863.66
2023-08-21T00:59:22.485Z,97868.19
2023-08-21T01:04:25.328Z,97868.44
2023-08-21T01:09:34.700Z,97876.47
2023-08-21T01:14:47.794Z,97875.47
2023-08-21T01:19:52.344Z,97873.69
2023-08-21T01:24:56.633Z,97875.97
2023-08-21T01:30:00.288Z,97871.66
2023-08-21T01:35:04.786Z,97875.19
2023-08-21T01:40:10.693Z,97876.94
2023-08-21T01:45:13.546Z,97879.22
2023-08-21T01:50:16.535Z,97881.19
2023-08-21T01:55:20.973Z,97872.88
2023-08-21T02:00:23.790Z,97880.19
2023-08-21T02:05:26.612Z,97873.91
2023-08-21T02:10:30.770Z,97882.28
2023-08-21T02:15:33.820Z,97871.63
2023-08-21T02:20:36.743Z,97882.69
2023-08-21T02:25:41.103Z,97874.03
2023-08-21T02:30:44.320Z,97882.56
2023-08-21T02:35:47.123Z,97878.00
2023-08-21T02:40:51.411Z,97887.69
2023-08-21T02:45:54.262Z,97878.38
2023-08-21T02:50:57.110Z,97883.66
2023-08-21T02:56:01.427Z,97879.59
2023-08-21T03:01:04.288Z,97883.78
2023-08-21T03:06:07.209Z,97889.06
2023-08-21T03:11:11.443Z,97877.66
2023-08-21T03:16:14.406Z,97873.16
2023-08-21T03:21:17.280Z,97866.59
2023-08-21T03:26:21.430Z,97864.84
2023-08-21T03:31:24.274Z,97872.03
2023-08-21T03:36:32.062Z,97870.28
2023-08-21T03:41:36.446Z,97876.50
2023-08-21T03:46:39.342Z,97873.25
2023-08-21T03:51:42.262Z,97878.47
2023-08-21T03:56:46.503Z,97878.03
2023-08-21T04:01:49.479Z,97874.44
2023-08-21T04:06:52.378Z,97875.28
2023-08-21T04:11:56.839Z,97871.88
2023-08-21T04:16:59.759Z,97869.97
2023-08-21T04:22:02.947Z,97872.28
2023-08-21T04:27:07.554Z,97876.97
2023-08-21T04:32:11.008Z,97881.59
2023-08-21T04:37:14.020Z,97881.38
2023-08-21T04:42:18.189Z,97883.81
2023-08-21T04:47:23.036Z,97884.88
2023-08-21T04:52:26.830Z,97886.97
2023-08-21T04:57:31.024Z,97893.22
2023-08-21T05:02:33.832Z,97893.16
2023-08-21T05:07:37.182Z,97901.41
2023-08-21T05:12:41.487Z,97893.16
2023-08-21T05:17:44.435Z,97897.31
2023-08-21T05:22:47.375Z,97892.50
2023-08-21T05:27:51.551Z,97902.84
2023-08-21T05:32:54.429Z,97914.34
2023-08-21T05:37:57.246Z,97912.75
2023-08-21T05:43:01.432Z,97913.16
2023-08-21T05:48:04.754Z,97922.50
2023-08-21T05:53:07.806Z,97920.34
2023-08-21T05:58:11.992Z,97910.63
2023-08-21T06:03:14.872Z,97915.22
2023-08-21T06:08:17.834Z,97916.47
2023-08-21T06:13:22.068Z,97916.50
2023-08-21T06:18:24.999Z,97921.97
2023-08-21T06:23:28.130Z,97926.00
2023-08-21T06:28:32.351Z,97923.66
2023-08-21T06:33:35.338Z,97928.22
2023-08-21T06:38:38.239Z,97925.41
2023-08-21T06:43:45.257Z,97918.41
2023-08-21T06:48:48.547Z,97920.75
2023-08-21T06:53:51.586Z,97928.81
2023-08-21T06:58:56.360Z,97932.13
2023-08-21T07:03:59.304Z,97925.94
2023-08-21T07:09:02.174Z,97920.69
2023-08-21T07:14:06.475Z,97931.78
2023-08-21T07:19:09.342Z,97927.56
2023-08-21T07:24:12.172Z,97933.78
2023-08-21T07:29:16.592Z,97922.63
2023-08-21T07:34:19.523Z,97918.47
2023-08-21T07:39:22.410Z,97925.22
2023-08-21T07:44:27.014Z,97920.00
2023-08-21T07:49:29.884Z,97921.84
2023-08-21T07:54:32.794Z,97916.25
2023-08-21T07:59:37.337Z,97912.41
2023-08-21T08:04:40.219Z,97904.78
2023-08-21T08:09:43.128Z,97905.38
2023-08-21T08:14:47.886Z,97903.75
2023-08-21T08:19:50.784Z,97902.25
2023-08-21T08:24:53.714Z,97900.06
2023-08-21T08:29:58.173Z,97907.28
2023-08-21T08:35:01.001Z,97895.78
2023-08-21T08:40:05.374Z,97894.72
2023-08-21T08:45:10.517Z,97892.31
2023-08-21T08:50:13.489Z,97892.72
2023-08-21T08:55:16.910Z,97877.31
2023-08-21T09:00:23.124Z,97888.84
2023-08-21T09:05:26.077Z,97888.31
2023-08-21T09:10:29.422Z,97880.84
2023-08-21T09:15:41.742Z,97879.25
2023-08-21T09:20:46.219Z,97878.69
2023-08-21T09:25:50.442Z,97876.06
2023-08-21T09:30:56.281Z,97861.16
2023-08-21T09:35:59.154Z,97857.78
2023-08-21T09:41:01.990Z,97862.19
2023-08-21T09:46:06.177Z,97855.19
2023-08-21T09:51:09.385Z,97859.31
2023-08-21T09:56:13.059Z,97838.00
2023-08-21T10:01:19.801Z,97844.97
2023-08-21T10:06:24.305Z,97836.47
2023-08-21T10:11:27.351Z,97838.34
2023-08-21T10:16:31.903Z,97832.50
2023-08-21T10:21:38.921Z,97830.13
2023-08-21T10:26:47.629Z,97828.00
2023-08-21T10:32:01.155Z,97825.94
2023-08-21T10:37:10.778Z,97817.00
2023-08-21T10:42:16.040Z,97814.91
2023-08-21T10:47:22.380Z,97817.09
2023-08-21T10:52:27.024Z,97821.97
2023-08-21T10:57:31.223Z,97817.84
2023-08-21T11:02:35.641Z,97817.09
2023-08-21T11:07:40.682Z,97819.84
2023-08-21T11:12:51.887Z,97814.50
2023-08-21T11:17:58.631Z,97818.44
2023-08-21T11:23:03.436Z,97810.31
2023-08-21T11:28:07.665Z,97812.19
2023-08-21T11:33:13.114Z,97805.84
2023-08-21T11:38:18.760Z,97803.09
2023-08-21T11:43:21.690Z,97799.50
2023-08-21T11:48:25.938Z,97798.88
2023-08-21T11:53:33.742Z,97793.97
2023-08-21T11:58:40.554Z,97795.50
2023-08-21T12:03:46.163Z,97792.47
2023-08-21T12:08:49.245Z,97792.16
2023-08-21T12:13:52.986Z,97783.41
2023-08-21T12:18:58.552Z,97780.78
2023-08-21T12:24:01.418Z,97778.47
2023-08-21T12:29:04.453Z,97772.72
2023-08-21T12:34:08.687Z,97771.25
2023-08-21T12:39:11.541Z,97763.19
2023-08-21T12:44:14.393Z,97751.09
2023-08-21T12:49:18.559Z,97758.47
2023-08-21T12:54:21.454Z,97762.34
2023-08-21T12:59:24.370Z,97755.75
2023-08-21T13:04:28.605Z,97749.47
2023-08-21T13:09:31.441Z,97748.50
2023-08-21T13:14:34.266Z,97742.94
2023-08-21T13:19:38.425Z,97729.97
2023-08-21T13:24:41.254Z,97730.97
2023-08-21T13:29:44.241Z,97732.75
2023-08-21T13:34:48.643Z,97727.28
2023-08-21T13:39:51.490Z,97728.25
2023-08-21T13:44:55.186Z,97718.09
2023-08-21T13:50:00.228Z,97715.13
2023-08-21T13:55:03.762Z,97712.09
2023-08-21T14:00:09.136Z,97708.28
2023-08-21T14:05:13.898Z,97708.41
2023-08-21T14:10:16.873Z,97700.69
2023-08-21T14:15:20.264Z,97694.09
2023-08-21T14:20:24.536Z,97704.19
2023-08-21T14:25:27.483Z,97700.72
2023-08-21T14:30:30.363Z,97695.72
2023-08-21T14:35:34.618Z,97685.94
2023-08-21T14:40:37.552Z,97687.28
2023-08-21T14:45:40.618Z,97684.25
2023-08-21T14:50:44.861Z,97674.56
2023-08-21T14:55:47.674Z,97668.75
2023-08-21T15:00:52.289Z,97669.06
2023-08-21T15:05:56.638Z,97672.63
2023-08-21T15:10:59.558Z,97670.44
2023-08-21T15:16:02.875Z,97668.13
2023-08-21T15:21:07.121Z,97664.78
2023-08-21T15:26:09.968Z,97666.97
2023-08-21T15:31:12.823Z,97658.78
2023-08-21T15:36:17.103Z,97657.44
2023-08-21T15:41:20.046Z,97657.31
2023-08-21T15:46:23.022Z,97648.72
2023-08-21T15:51:27.300Z,97653.91
2023-08-21T15:56:30.263Z,97650.94
2023-08-21T16:01:33.481Z,97653.19
2023-08-21T16:06:37.755Z,97654.66
2023-08-21T16:11:40.759Z,97646.44
2023-08-21T16:16:44.805Z,97647.50
2023-08-21T16:21:50.912Z,97640.41
2023-08-21T16:26:53.828Z,97648.22
2023-08-21T16:31:57.041Z,97646.31
2023-08-21T16:37:01.562Z,97660.31
2023-08-21T16:42:04.794Z,97657.16
2023-08-21T16:47:08.829Z,97661.03
2023-08-21T16:52:13.109Z,97657.34
2023-08-21T16:57:17.239Z,97660.78
2023-08-21T17:02:22.969Z,97668.09
2023-08-21T17:07:27.337Z,97661.31
2023-08-21T17:12:31.224Z,97662.78
2023-08-21T17:17:35.446Z,97659.63
2023-08-21T17:22:41.243Z,97660.94
2023-08-21T17:27:45.609Z,97667.16
2023-08-21T17:32:50.602Z,97666.22
2023-08-21T17:37:57.416Z,97667.34
2023-08-21T17:43:02.341Z,97662.28
2023-08-21T17:48:08.474Z,97661.16
2023-08-21T17:53:14.987Z,97670.16
2023-08-21T17:58:20.528Z,97666.78
2023-08-21T18:03:26.007Z,97677.69
2023-08-21T18:08:33.425Z,97683.63
2023-08-21T18:13:39.917Z,97691.84
2023-08-21T18:18:47.361Z,97691.63
2023-08-21T18:23:56.125Z,97698.31
2023-08-21T18:29:04.212Z,97703.91
2023-08-21T18:34:09.838Z,97710.53
2023-08-21T18:39:17.003Z,97715.63
2023-08-21T18:44:22.598Z,97723.09
2023-08-21T18:49:28.100Z,97733.13
2023-08-21T18:54:35.299Z,97742.72
2023-08-21T18:59:42.600Z,97751.19
2023-08-21T19:04:49.669Z,97753.66
2023-08-21T19:09:58.484Z,97748.69
2023-08-21T19:15:07.964Z,97739.41
2023-08-21T19:20:14.756Z,97748.25
2023-08-21T19:25:24.087Z,97755.94
2023-08-21T19:30:29.686Z,97748.50
2023-08-21T19:35:36.968Z,97748.19
2023-08-21T19:40:48.970Z,97755.88
2023-08-21T19:46:00.594Z,97753.63
2023-08-21T19:51:06.517Z,97757.59
2023-08-21T19:56:13.752Z,97758.69
2023-08-21T20:01:20.562Z,97749.19
2023-08-21T20:06:25.838Z,97745.06
2023-08-21T20:11:35.638Z,97745.63
2023-08-21T20:16:40.974Z,97745.78
2023-08-21T20:21:46.176Z,97748.00
2023-08-21T20:26:53.195Z,97747.47
2023-08-21T20:31:58.400Z,97756.41
2023-08-21T20:37:03.380Z,97752.03
2023-08-21T20:42:10.023Z,97755.19
2023-08-21T20:47:15.761Z,97757.31
2023-08-21T20:52:21.158Z,97750.47
2023-08-21T20:57:28.400Z,97751.03
2023-08-21T21:02:31.424Z,97762.50
2023-08-21T21:07:36.020Z,97764.00
2023-08-21T21:12:40.505Z,97767.50
2023-08-21T21:17:43.650Z,97761.81
2023-08-21T21:22:46.788Z,97761.28
2023-08-21T21:27:51.206Z,97758.59
2023-08-21T21:32:54.110Z,97757.13
2023-08-21T21:37:56.977Z,97747.69
2023-08-21T21:43:01.173Z,97749.22
2023-08-21T21:48:04.146Z,97752.00
2023-08-21T21:53:06.937Z,97754.47
2023-08-21T21:58:11.161Z,97754.00
2023-08-21T22:03:14.181Z,97754.63
2023-08-21T22:08:17.349Z,97748.94
2023-08-21T22:13:22.394Z,97749.31
2023-08-21T22:18:25.244Z,97749.81
2023-08-21T22:23:28.069Z,97761.75
2023-08-21T22:28:32.365Z,97752.22
2023-08-21T22:33:35.212Z,97756.28
2023-08-21T22:38:38.281Z,97755.31
2023-08-21T22:43:42.555Z,97752.66
2023-08-21T22:48:45.467Z,97746.97
2023-08-21T22:53:48.336Z,97742.44
2023-08-21T22:58:52.590Z,97734.84
2023-08-21T23:03:56.188Z,97729.03
2023-08-21T23:08:59.056Z,97735.78
2023-08-21T23:14:03.246Z,97733.09
2023-08-21T23:19:06.388Z,97732.53
2023-08-21T23:24:09.203Z,97730.03
2023-08-21T23:29:13.407Z,97729.84
2023-08-21T23:34:16.421Z,97728.47
2023-08-21T23:39:19.310Z,97736.56
2023-08-21T23:44:23.554Z,97737.09
2023-08-21T23:49:26.571Z,97731.56
2023-08-21T23:54:29.380Z,97734.22
2023-08-21T23:59:33.724Z,97728.91
